sensor_id;sensor_type;location;lat;lon;timestamp;temperature;humidity
680;DHT22;322;48.846;9.230;2023-11-19T00:00:27;8.20;99.90
680;DHT22;322;48.846;9.230;2023-11-19T00:02:55;8.30;99.90
680;DHT22;322;48.846;9.230;2023-11-19T00:05:23;8.30;99.90
680;DHT22;322;48.846;9.230;2023-11-19T00:07:51;8.20;99.90
680;DHT22;322;48.846;9.230;2023-11-19T00:10:19;8.20;99.90
680;DHT22;322;48.846;9.230;2023-11-19T00:12:48;8.20;99.90
680;DHT22;322;48.846;9.230;2023-11-19T00:15:18;8.20;99.90
680;DHT22;322;48.846;9.230;2023-11-19T00:17:48;8.30;99.90
680;DHT22;322;48.846;9.230;2023-11-19T00:20:17;8.20;99.90
680;DHT22;322;48.846;9.230;2023-11-19T00:22:46;8.20;99.90
680;DHT22;322;48.846;9.230;2023-11-19T00:25:16;8.30;99.90
680;DHT22;322;48.846;9.230;2023-11-19T00:27:45;8.30;99.90
680;DHT22;322;48.846;9.230;2023-11-19T00:30:13;8.40;99.90
680;DHT22;322;48.846;9.230;2023-11-19T00:32:42;8.40;99.90
680;DHT22;322;48.846;9.230;2023-11-19T00:35:11;8.40;99.90
680;DHT22;322;48.846;9.230;2023-11-19T00:37:41;8.40;99.90
680;DHT22;322;48.846;9.230;2023-11-19T00:40:12;8.40;99.90
680;DHT22;322;48.846;9.230;2023-11-19T00:42:42;8.50;99.90
680;DHT22;322;48.846;9.230;2023-11-19T00:45:10;8.50;99.90
680;DHT22;322;48.846;9.230;2023-11-19T00:47:39;8.50;99.90
680;DHT22;322;48.846;9.230;2023-11-19T00:50:08;8.50;99.90
680;DHT22;322;48.846;9.230;2023-11-19T00:52:39;8.50;99.90
680;DHT22;322;48.846;9.230;2023-11-19T00:55:07;8.50;99.90
680;DHT22;322;48.846;9.230;2023-11-19T00:57:35;8.50;99.90
680;DHT22;322;48.846;9.230;2023-11-19T01:00:07;8.50;99.90
680;DHT22;322;48.846;9.230;2023-11-19T01:02:45;8.50;99.90
680;DHT22;322;48.846;9.230;2023-11-19T01:05:14;8.50;99.90
680;DHT22;322;48.846;9.230;2023-11-19T01:07:43;8.50;99.90
680;DHT22;322;48.846;9.230;2023-11-19T01:10:11;8.60;99.90
680;DHT22;322;48.846;9.230;2023-11-19T01:12:39;8.60;99.90
680;DHT22;322;48.846;9.230;2023-11-19T01:15:08;8.60;99.90
680;DHT22;322;48.846;9.230;2023-11-19T01:17:37;8.70;99.90
680;DHT22;322;48.846;9.230;2023-11-19T01:20:06;8.70;99.90
680;DHT22;322;48.846;9.230;2023-11-19T01:22:35;8.80;99.90
680;DHT22;322;48.846;9.230;2023-11-19T01:25:05;8.80;99.90
680;DHT22;322;48.846;9.230;2023-11-19T01:27:33;8.80;99.90
680;DHT22;322;48.846;9.230;2023-11-19T01:30:02;8.80;99.90
680;DHT22;322;48.846;9.230;2023-11-19T01:32:30;8.90;99.90
680;DHT22;322;48.846;9.230;2023-11-19T01:34:58;8.90;99.90
680;DHT22;322;48.846;9.230;2023-11-19T01:37:26;8.90;99.90
680;DHT22;322;48.846;9.230;2023-11-19T01:39:54;9.00;99.90
680;DHT22;322;48.846;9.230;2023-11-19T01:42:26;9.00;99.90
680;DHT22;322;48.846;9.230;2023-11-19T01:44:58;9.00;99.90
680;DHT22;322;48.846;9.230;2023-11-19T01:47:28;9.00;99.90
680;DHT22;322;48.846;9.230;2023-11-19T01:49:58;9.10;99.90
680;DHT22;322;48.846;9.230;2023-11-19T01:52:27;9.00;99.90
680;DHT22;322;48.846;9.230;2023-11-19T01:54:55;9.10;99.90
680;DHT22;322;48.846;9.230;2023-11-19T01:57:24;9.10;99.90
680;DHT22;322;48.846;9.230;2023-11-19T01:59:53;9.20;99.90
680;DHT22;322;48.846;9.230;2023-11-19T02:02:22;9.10;99.90
680;DHT22;322;48.846;9.230;2023-11-19T02:04:51;9.10;99.90
680;DHT22;322;48.846;9.230;2023-11-19T02:07:20;9.10;99.90
680;DHT22;322;48.846;9.230;2023-11-19T02:09:48;9.10;99.90
680;DHT22;322;48.846;9.230;2023-11-19T02:12:16;9.10;99.90
680;DHT22;322;48.846;9.230;2023-11-19T02:14:46;9.20;99.90
680;DHT22;322;48.846;9.230;2023-11-19T02:17:28;9.10;99.90
680;DHT22;322;48.846;9.230;2023-11-19T02:19:58;9.10;99.90
680;DHT22;322;48.846;9.230;2023-11-19T02:22:26;9.20;99.90
680;DHT22;322;48.846;9.230;2023-11-19T02:24:59;9.20;99.90
680;DHT22;322;48.846;9.230;2023-11-19T02:27:40;9.20;99.90
680;DHT22;322;48.846;9.230;2023-11-19T02:30:10;9.10;99.90
680;DHT22;322;48.846;9.230;2023-11-19T02:32:38;9.20;99.90
680;DHT22;322;48.846;9.230;2023-11-19T02:35:07;9.30;99.90
680;DHT22;322;48.846;9.230;2023-11-19T02:37:36;9.20;99.90
680;DHT22;322;48.846;9.230;2023-11-19T02:40:05;9.20;99.90
680;DHT22;322;48.846;9.230;2023-11-19T02:42:36;9.10;99.90
680;DHT22;322;48.846;9.230;2023-11-19T02:45:06;9.10;99.90
680;DHT22;322;48.846;9.230;2023-11-19T02:47:34;9.10;99.90
680;DHT22;322;48.846;9.230;2023-11-19T02:50:03;9.10;99.90
680;DHT22;322;48.846;9.230;2023-11-19T02:52:33;9.10;99.90
680;DHT22;322;48.846;9.230;2023-11-19T02:55:04;9.00;99.90
680;DHT22;322;48.846;9.230;2023-11-19T02:57:36;9.10;99.90
680;DHT22;322;48.846;9.230;2023-11-19T03:00:07;9.10;99.90
680;DHT22;322;48.846;9.230;2023-11-19T03:02:39;9.10;99.90
680;DHT22;322;48.846;9.230;2023-11-19T03:05:12;9.10;99.90
680;DHT22;322;48.846;9.230;2023-11-19T03:07:41;9.20;99.90
680;DHT22;322;48.846;9.230;2023-11-19T03:10:11;9.20;99.90
680;DHT22;322;48.846;9.230;2023-11-19T03:12:41;9.10;99.90
680;DHT22;322;48.846;9.230;2023-11-19T03:15:10;9.30;99.90
680;DHT22;322;48.846;9.230;2023-11-19T03:17:39;9.40;99.90
680;DHT22;322;48.846;9.230;2023-11-19T03:20:09;9.30;99.90
680;DHT22;322;48.846;9.230;2023-11-19T03:22:38;9.20;99.90
680;DHT22;322;48.846;9.230;2023-11-19T03:25:06;9.20;99.90
680;DHT22;322;48.846;9.230;2023-11-19T03:27:35;9.20;99.90
680;DHT22;322;48.846;9.230;2023-11-19T03:30:04;9.20;99.90
680;DHT22;322;48.846;9.230;2023-11-19T03:32:33;9.20;99.90
680;DHT22;322;48.846;9.230;2023-11-19T03:35:02;9.30;99.90
680;DHT22;322;48.846;9.230;2023-11-19T03:37:31;9.30;99.90
680;DHT22;322;48.846;9.230;2023-11-19T03:40:00;9.30;99.90
680;DHT22;322;48.846;9.230;2023-11-19T03:42:29;9.40;99.90
680;DHT22;322;48.846;9.230;2023-11-19T03:44:57;9.40;99.90
680;DHT22;322;48.846;9.230;2023-11-19T03:47:25;9.30;99.90
680;DHT22;322;48.846;9.230;2023-11-19T03:49:55;9.30;99.90
680;DHT22;322;48.846;9.230;2023-11-19T03:52:23;9.30;99.90
680;DHT22;322;48.846;9.230;2023-11-19T03:54:52;9.30;99.90
680;DHT22;322;48.846;9.230;2023-11-19T03:57:21;9.30;99.90
680;DHT22;322;48.846;9.230;2023-11-19T03:59:50;9.30;99.90
680;DHT22;322;48.846;9.230;2023-11-19T04:02:18;9.30;99.90
680;DHT22;322;48.846;9.230;2023-11-19T04:04:45;9.40;99.90
680;DHT22;322;48.846;9.230;2023-11-19T04:07:16;9.40;99.90
680;DHT22;322;48.846;9.230;2023-11-19T04:09:44;9.50;99.90
680;DHT22;322;48.846;9.230;2023-11-19T04:12:13;9.50;99.90
680;DHT22;322;48.846;9.230;2023-11-19T04:14:41;9.50;99.90
680;DHT22;322;48.846;9.230;2023-11-19T04:17:09;9.50;99.90
680;DHT22;322;48.846;9.230;2023-11-19T04:19:38;9.60;99.90
680;DHT22;322;48.846;9.230;2023-11-19T04:22:08;9.60;99.90
680;DHT22;322;48.846;9.230;2023-11-19T04:24:37;9.60;99.90
680;DHT22;322;48.846;9.230;2023-11-19T04:27:05;9.60;99.90
680;DHT22;322;48.846;9.230;2023-11-19T04:29:33;9.60;99.90
680;DHT22;322;48.846;9.230;2023-11-19T04:32:01;9.60;99.90
680;DHT22;322;48.846;9.230;2023-11-19T04:34:29;9.60;99.90
680;DHT22;322;48.846;9.230;2023-11-19T04:36:57;9.60;99.90
680;DHT22;322;48.846;9.230;2023-11-19T04:39:39;9.60;99.90
680;DHT22;322;48.846;9.230;2023-11-19T04:42:07;9.70;99.90
680;DHT22;322;48.846;9.230;2023-11-19T04:44:35;9.80;99.90
680;DHT22;322;48.846;9.230;2023-11-19T04:47:03;9.80;99.90
680;DHT22;322;48.846;9.230;2023-11-19T04:49:31;9.80;99.90
680;DHT22;322;48.846;9.230;2023-11-19T04:52:00;9.90;99.90
680;DHT22;322;48.846;9.230;2023-11-19T04:54:29;9.90;99.90
680;DHT22;322;48.846;9.230;2023-11-19T04:56:58;10.00;99.90
680;DHT22;322;48.846;9.230;2023-11-19T04:59:26;10.10;99.90
680;DHT22;322;48.846;9.230;2023-11-19T05:01:55;10.20;99.90
680;DHT22;322;48.846;9.230;2023-11-19T05:04:22;10.20;99.90
680;DHT22;322;48.846;9.230;2023-11-19T05:06:51;10.30;99.90
680;DHT22;322;48.846;9.230;2023-11-19T05:09:19;10.30;99.90
680;DHT22;322;48.846;9.230;2023-11-19T05:11:47;10.30;99.90
680;DHT22;322;48.846;9.230;2023-11-19T05:14:19;10.30;99.90
680;DHT22;322;48.846;9.230;2023-11-19T05:16:48;10.30;99.90
680;DHT22;322;48.846;9.230;2023-11-19T05:19:16;10.30;99.90
680;DHT22;322;48.846;9.230;2023-11-19T05:21:44;10.40;99.90
680;DHT22;322;48.846;9.230;2023-11-19T05:24:12;10.60;99.90
680;DHT22;322;48.846;9.230;2023-11-19T05:26:40;10.70;99.90
680;DHT22;322;48.846;9.230;2023-11-19T05:29:08;10.70;99.90
680;DHT22;322;48.846;9.230;2023-11-19T05:31:38;10.70;99.90
680;DHT22;322;48.846;9.230;2023-11-19T05:34:10;10.80;99.90
680;DHT22;322;48.846;9.230;2023-11-19T05:36:38;10.90;99.90
680;DHT22;322;48.846;9.230;2023-11-19T05:39:06;10.90;99.90
680;DHT22;322;48.846;9.230;2023-11-19T05:41:35;11.00;99.90
680;DHT22;322;48.846;9.230;2023-11-19T05:44:02;11.10;99.90
680;DHT22;322;48.846;9.230;2023-11-19T05:46:30;11.10;99.90
680;DHT22;322;48.846;9.230;2023-11-19T05:49:00;11.10;99.90
680;DHT22;322;48.846;9.230;2023-11-19T05:51:28;11.10;99.90
680;DHT22;322;48.846;9.230;2023-11-19T05:53:56;11.20;99.90
680;DHT22;322;48.846;9.230;2023-11-19T05:56:24;11.20;99.90
680;DHT22;322;48.846;9.230;2023-11-19T05:58:58;11.10;99.90
680;DHT22;322;48.846;9.230;2023-11-19T06:01:27;11.10;99.90
680;DHT22;322;48.846;9.230;2023-11-19T06:03:56;11.00;99.90
680;DHT22;322;48.846;9.230;2023-11-19T06:06:25;11.10;99.90
680;DHT22;322;48.846;9.230;2023-11-19T06:08:53;11.00;99.90
680;DHT22;322;48.846;9.230;2023-11-19T06:11:21;11.00;99.90
680;DHT22;322;48.846;9.230;2023-11-19T06:13:49;11.10;99.90
680;DHT22;322;48.846;9.230;2023-11-19T06:16:18;11.00;99.90
680;DHT22;322;48.846;9.230;2023-11-19T06:18:46;11.10;99.90
680;DHT22;322;48.846;9.230;2023-11-19T06:21:14;11.00;99.90
680;DHT22;322;48.846;9.230;2023-11-19T06:23:44;11.10;99.90
680;DHT22;322;48.846;9.230;2023-11-19T06:26:12;11.10;99.90
680;DHT22;322;48.846;9.230;2023-11-19T06:28:40;11.10;99.90
680;DHT22;322;48.846;9.230;2023-11-19T06:31:08;11.10;99.90
680;DHT22;322;48.846;9.230;2023-11-19T06:33:36;11.20;99.90
680;DHT22;322;48.846;9.230;2023-11-19T06:36:05;11.20;99.90
680;DHT22;322;48.846;9.230;2023-11-19T06:38:34;11.10;99.90
680;DHT22;322;48.846;9.230;2023-11-19T06:41:07;11.10;99.90
680;DHT22;322;48.846;9.230;2023-11-19T06:43:35;11.20;99.90
680;DHT22;322;48.846;9.230;2023-11-19T06:46:13;11.30;99.90
680;DHT22;322;48.846;9.230;2023-11-19T06:48:41;11.30;99.90
680;DHT22;322;48.846;9.230;2023-11-19T06:51:10;11.50;99.90
680;DHT22;322;48.846;9.230;2023-11-19T06:53:38;11.40;99.90
680;DHT22;322;48.846;9.230;2023-11-19T06:56:19;11.50;99.90
680;DHT22;322;48.846;9.230;2023-11-19T06:58:47;11.50;99.90
680;DHT22;322;48.846;9.230;2023-11-19T07:01:15;11.40;99.90
680;DHT22;322;48.846;9.230;2023-11-19T07:03:45;11.50;99.90
680;DHT22;322;48.846;9.230;2023-11-19T07:06:14;11.40;99.90
680;DHT22;322;48.846;9.230;2023-11-19T07:08:42;11.40;99.90
680;DHT22;322;48.846;9.230;2023-11-19T07:11:11;11.40;99.90
680;DHT22;322;48.846;9.230;2023-11-19T07:13:42;11.40;99.90
680;DHT22;322;48.846;9.230;2023-11-19T07:16:10;11.40;99.90
680;DHT22;322;48.846;9.230;2023-11-19T07:18:38;11.40;99.90
680;DHT22;322;48.846;9.230;2023-11-19T07:21:06;11.40;99.90
680;DHT22;322;48.846;9.230;2023-11-19T07:23:37;11.50;99.90
680;DHT22;322;48.846;9.230;2023-11-19T07:26:06;11.50;99.90
680;DHT22;322;48.846;9.230;2023-11-19T07:28:36;11.50;99.90
680;DHT22;322;48.846;9.230;2023-11-19T07:31:05;11.50;99.90
680;DHT22;322;48.846;9.230;2023-11-19T07:33:34;11.60;99.90
680;DHT22;322;48.846;9.230;2023-11-19T07:36:03;11.60;99.90
680;DHT22;322;48.846;9.230;2023-11-19T07:38:31;11.50;99.90
680;DHT22;322;48.846;9.230;2023-11-19T07:40:59;11.60;99.90
680;DHT22;322;48.846;9.230;2023-11-19T07:43:27;11.60;99.90
680;DHT22;322;48.846;9.230;2023-11-19T07:45:55;11.60;99.90
680;DHT22;322;48.846;9.230;2023-11-19T07:48:27;11.60;99.90
680;DHT22;322;48.846;9.230;2023-11-19T07:50:55;11.70;99.90
680;DHT22;322;48.846;9.230;2023-11-19T07:53:23;11.70;99.90
680;DHT22;322;48.846;9.230;2023-11-19T07:55:51;11.70;99.90
680;DHT22;322;48.846;9.230;2023-11-19T07:58:19;11.70;99.90
680;DHT22;322;48.846;9.230;2023-11-19T08:00:47;11.70;99.90
680;DHT22;322;48.846;9.230;2023-11-19T08:03:15;11.70;99.90
680;DHT22;322;48.846;9.230;2023-11-19T08:05:45;11.80;99.90
680;DHT22;322;48.846;9.230;2023-11-19T08:08:13;11.80;99.90
680;DHT22;322;48.846;9.230;2023-11-19T08:10:41;12.00;99.90
680;DHT22;322;48.846;9.230;2023-11-19T08:13:10;12.00;99.90
680;DHT22;322;48.846;9.230;2023-11-19T08:15:38;12.00;99.90
680;DHT22;322;48.846;9.230;2023-11-19T08:18:07;12.00;99.90
680;DHT22;322;48.846;9.230;2023-11-19T08:20:35;12.10;99.90
680;DHT22;322;48.846;9.230;2023-11-19T08:23:05;12.20;99.90
680;DHT22;322;48.846;9.230;2023-11-19T08:25:33;12.30;99.90
680;DHT22;322;48.846;9.230;2023-11-19T08:28:01;12.40;99.90
680;DHT22;322;48.846;9.230;2023-11-19T08:30:30;12.50;99.90
680;DHT22;322;48.846;9.230;2023-11-19T08:32:58;12.70;99.90
680;DHT22;322;48.846;9.230;2023-11-19T08:35:29;12.80;99.90
680;DHT22;322;48.846;9.230;2023-11-19T08:37:57;12.90;99.90
680;DHT22;322;48.846;9.230;2023-11-19T08:40:28;12.90;99.90
680;DHT22;322;48.846;9.230;2023-11-19T08:42:56;12.90;99.90
680;DHT22;322;48.846;9.230;2023-11-19T08:45:25;12.90;99.90
680;DHT22;322;48.846;9.230;2023-11-19T08:47:52;12.90;99.90
680;DHT22;322;48.846;9.230;2023-11-19T08:50:21;12.70;99.90
680;DHT22;322;48.846;9.230;2023-11-19T08:52:49;12.80;99.90
680;DHT22;322;48.846;9.230;2023-11-19T08:55:17;12.70;99.90
680;DHT22;322;48.846;9.230;2023-11-19T08:57:47;12.80;99.90
680;DHT22;322;48.846;9.230;2023-11-19T09:00:15;12.90;99.90
680;DHT22;322;48.846;9.230;2023-11-19T09:02:44;12.90;99.90
680;DHT22;322;48.846;9.230;2023-11-19T09:05:12;13.00;99.90
680;DHT22;322;48.846;9.230;2023-11-19T09:07:40;13.00;99.90
680;DHT22;322;48.846;9.230;2023-11-19T09:10:09;12.90;99.90
680;DHT22;322;48.846;9.230;2023-11-19T09:12:38;13.00;99.90
680;DHT22;322;48.846;9.230;2023-11-19T09:15:08;13.30;99.90
680;DHT22;322;48.846;9.230;2023-11-19T09:17:37;13.70;99.90
680;DHT22;322;48.846;9.230;2023-11-19T09:20:06;13.90;99.90
680;DHT22;322;48.846;9.230;2023-11-19T09:22:35;14.00;99.90
680;DHT22;322;48.846;9.230;2023-11-19T09:25:04;14.00;99.90
680;DHT22;322;48.846;9.230;2023-11-19T09:27:32;13.80;99.90
680;DHT22;322;48.846;9.230;2023-11-19T09:30:00;13.80;99.90
680;DHT22;322;48.846;9.230;2023-11-19T09:32:29;13.80;99.90
680;DHT22;322;48.846;9.230;2023-11-19T09:34:57;13.80;99.90
680;DHT22;322;48.846;9.230;2023-11-19T09:37:25;13.80;99.90
680;DHT22;322;48.846;9.230;2023-11-19T09:39:53;13.70;99.90
680;DHT22;322;48.846;9.230;2023-11-19T09:42:21;13.60;99.90
680;DHT22;322;48.846;9.230;2023-11-19T09:44:49;13.60;99.90
680;DHT22;322;48.846;9.230;2023-11-19T09:47:17;13.60;99.90
680;DHT22;322;48.846;9.230;2023-11-19T09:49:49;13.80;99.90
680;DHT22;322;48.846;9.230;2023-11-19T09:52:17;13.90;99.90
680;DHT22;322;48.846;9.230;2023-11-19T09:54:45;14.20;99.90
680;DHT22;322;48.846;9.230;2023-11-19T09:57:14;14.60;99.90
680;DHT22;322;48.846;9.230;2023-11-19T09:59:45;15.00;99.90
680;DHT22;322;48.846;9.230;2023-11-19T10:02:14;15.30;99.90
680;DHT22;322;48.846;9.230;2023-11-19T10:04:45;15.50;99.90
680;DHT22;322;48.846;9.230;2023-11-19T10:07:15;16.00;99.90
680;DHT22;322;48.846;9.230;2023-11-19T10:09:43;16.30;99.90
680;DHT22;322;48.846;9.230;2023-11-19T10:12:13;16.40;99.90
680;DHT22;322;48.846;9.230;2023-11-19T10:14:42;16.30;99.90
680;DHT22;322;48.846;9.230;2023-11-19T10:17:10;16.00;99.90
680;DHT22;322;48.846;9.230;2023-11-19T10:19:40;15.80;99.90
680;DHT22;322;48.846;9.230;2023-11-19T10:22:08;15.70;99.90
680;DHT22;322;48.846;9.230;2023-11-19T10:24:37;15.60;99.90
680;DHT22;322;48.846;9.230;2023-11-19T10:27:14;15.50;99.90
680;DHT22;322;48.846;9.230;2023-11-19T10:29:45;15.60;99.90
680;DHT22;322;48.846;9.230;2023-11-19T10:32:13;15.60;99.90
680;DHT22;322;48.846;9.230;2023-11-19T10:34:56;15.80;99.90
680;DHT22;322;48.846;9.230;2023-11-19T10:37:32;15.80;99.90
680;DHT22;322;48.846;9.230;2023-11-19T10:40:04;15.90;99.90
680;DHT22;322;48.846;9.230;2023-11-19T10:42:32;15.80;99.90
680;DHT22;322;48.846;9.230;2023-11-19T10:45:00;15.50;99.90
680;DHT22;322;48.846;9.230;2023-11-19T10:47:29;15.20;99.90
680;DHT22;322;48.846;9.230;2023-11-19T10:50:00;15.10;99.90
680;DHT22;322;48.846;9.230;2023-11-19T10:52:29;15.30;99.90
680;DHT22;322;48.846;9.230;2023-11-19T10:54:59;15.50;99.90
680;DHT22;322;48.846;9.230;2023-11-19T10:57:30;15.70;99.90
680;DHT22;322;48.846;9.230;2023-11-19T11:00:02;15.80;99.90
680;DHT22;322;48.846;9.230;2023-11-19T11:02:40;16.10;99.90
680;DHT22;322;48.846;9.230;2023-11-19T11:05:10;16.20;99.90
680;DHT22;322;48.846;9.230;2023-11-19T11:07:40;16.10;99.90
680;DHT22;322;48.846;9.230;2023-11-19T11:10:09;16.10;99.90
680;DHT22;322;48.846;9.230;2023-11-19T11:12:41;15.90;99.90
680;DHT22;322;48.846;9.230;2023-11-19T11:15:11;15.80;99.90
680;DHT22;322;48.846;9.230;2023-11-19T11:17:39;15.80;99.90
680;DHT22;322;48.846;9.230;2023-11-19T11:20:10;15.70;99.90
680;DHT22;322;48.846;9.230;2023-11-19T11:22:44;15.50;99.90
680;DHT22;322;48.846;9.230;2023-11-19T11:25:28;15.50;99.90
680;DHT22;322;48.846;9.230;2023-11-19T11:28:09;15.50;99.90
680;DHT22;322;48.846;9.230;2023-11-19T11:30:49;15.40;99.90
680;DHT22;322;48.846;9.230;2023-11-19T11:33:31;15.30;99.90
680;DHT22;322;48.846;9.230;2023-11-19T11:36:11;15.20;99.90
680;DHT22;322;48.846;9.230;2023-11-19T11:38:41;15.10;99.90
680;DHT22;322;48.846;9.230;2023-11-19T11:41:16;15.00;99.90
680;DHT22;322;48.846;9.230;2023-11-19T11:43:49;15.00;99.90
680;DHT22;322;48.846;9.230;2023-11-19T11:46:53;15.00;99.90
680;DHT22;322;48.846;9.230;2023-11-19T11:49:28;15.20;99.90
680;DHT22;322;48.846;9.230;2023-11-19T11:51:58;15.40;99.90
680;DHT22;322;48.846;9.230;2023-11-19T11:54:28;15.60;99.90
680;DHT22;322;48.846;9.230;2023-11-19T11:57:07;15.70;99.90
680;DHT22;322;48.846;9.230;2023-11-19T11:59:49;15.50;99.90
680;DHT22;322;48.846;9.230;2023-11-19T12:02:18;15.30;99.90
680;DHT22;322;48.846;9.230;2023-11-19T12:04:48;15.30;99.90
680;DHT22;322;48.846;9.230;2023-11-19T12:07:18;15.40;99.90
680;DHT22;322;48.846;9.230;2023-11-19T12:09:52;15.70;99.90
680;DHT22;322;48.846;9.230;2023-11-19T12:12:23;15.90;99.90
680;DHT22;322;48.846;9.230;2023-11-19T12:15:04;16.00;99.90
680;DHT22;322;48.846;9.230;2023-11-19T12:17:41;15.90;99.90
680;DHT22;322;48.846;9.230;2023-11-19T12:20:11;16.10;99.90
680;DHT22;322;48.846;9.230;2023-11-19T12:22:40;16.20;99.90
680;DHT22;322;48.846;9.230;2023-11-19T12:25:09;16.40;99.90
680;DHT22;322;48.846;9.230;2023-11-19T12:27:40;16.60;99.90
680;DHT22;322;48.846;9.230;2023-11-19T12:30:10;16.50;99.90
680;DHT22;322;48.846;9.230;2023-11-19T12:32:40;16.50;99.90
680;DHT22;322;48.846;9.230;2023-11-19T12:35:09;16.50;99.90
680;DHT22;322;48.846;9.230;2023-11-19T12:37:42;16.30;99.90
680;DHT22;322;48.846;9.230;2023-11-19T12:40:18;16.10;99.90
680;DHT22;322;48.846;9.230;2023-11-19T12:42:46;16.10;99.90
680;DHT22;322;48.846;9.230;2023-11-19T12:45:16;16.10;99.90
680;DHT22;322;48.846;9.230;2023-11-19T12:47:46;16.20;99.90
680;DHT22;322;48.846;9.230;2023-11-19T12:50:16;16.10;99.90
680;DHT22;322;48.846;9.230;2023-11-19T12:52:55;16.10;99.90
680;DHT22;322;48.846;9.230;2023-11-19T12:55:25;16.10;99.90
680;DHT22;322;48.846;9.230;2023-11-19T12:57:56;16.20;99.90
680;DHT22;322;48.846;9.230;2023-11-19T13:00:27;16.40;99.90
680;DHT22;322;48.846;9.230;2023-11-19T13:02:57;16.50;99.90
680;DHT22;322;48.846;9.230;2023-11-19T13:05:27;16.50;99.90
680;DHT22;322;48.846;9.230;2023-11-19T13:08:01;16.70;99.90
680;DHT22;322;48.846;9.230;2023-11-19T13:10:29;16.60;99.90
680;DHT22;322;48.846;9.230;2023-11-19T13:13:05;16.50;99.90
680;DHT22;322;48.846;9.230;2023-11-19T13:15:36;16.40;99.90
680;DHT22;322;48.846;9.230;2023-11-19T13:18:04;16.30;99.90
680;DHT22;322;48.846;9.230;2023-11-19T13:20:33;16.20;99.90
680;DHT22;322;48.846;9.230;2023-11-19T13:23:03;16.20;99.90
680;DHT22;322;48.846;9.230;2023-11-19T13:25:31;16.20;99.90
680;DHT22;322;48.846;9.230;2023-11-19T13:28:00;16.10;99.90
680;DHT22;322;48.846;9.230;2023-11-19T13:30:28;15.90;99.90
680;DHT22;322;48.846;9.230;2023-11-19T13:32:58;15.80;99.90
680;DHT22;322;48.846;9.230;2023-11-19T13:35:27;15.60;99.90
680;DHT22;322;48.846;9.230;2023-11-19T13:37:56;15.60;99.90
680;DHT22;322;48.846;9.230;2023-11-19T13:40:24;15.60;99.90
680;DHT22;322;48.846;9.230;2023-11-19T13:42:52;15.50;99.90
680;DHT22;322;48.846;9.230;2023-11-19T13:45:20;15.60;99.90
680;DHT22;322;48.846;9.230;2023-11-19T13:47:48;15.50;99.90
680;DHT22;322;48.846;9.230;2023-11-19T13:50:18;15.50;99.90
680;DHT22;322;48.846;9.230;2023-11-19T13:52:46;15.50;99.90
680;DHT22;322;48.846;9.230;2023-11-19T13:55:15;15.50;99.90
680;DHT22;322;48.846;9.230;2023-11-19T13:57:43;15.50;99.90
680;DHT22;322;48.846;9.230;2023-11-19T14:00:12;15.60;99.90
680;DHT22;322;48.846;9.230;2023-11-19T14:02:42;15.60;99.90
680;DHT22;322;48.846;9.230;2023-11-19T14:05:10;15.50;99.90
680;DHT22;322;48.846;9.230;2023-11-19T14:07:40;15.50;99.90
680;DHT22;322;48.846;9.230;2023-11-19T14:10:08;15.50;99.90
680;DHT22;322;48.846;9.230;2023-11-19T14:12:38;15.60;99.90
680;DHT22;322;48.846;9.230;2023-11-19T14:15:07;15.70;99.90
680;DHT22;322;48.846;9.230;2023-11-19T14:17:36;15.60;99.90
680;DHT22;322;48.846;9.230;2023-11-19T14:20:05;15.60;99.90
680;DHT22;322;48.846;9.230;2023-11-19T14:22:41;15.60;99.90
680;DHT22;322;48.846;9.230;2023-11-19T14:25:09;15.60;99.90
680;DHT22;322;48.846;9.230;2023-11-19T14:27:38;15.50;99.90
680;DHT22;322;48.846;9.230;2023-11-19T14:30:07;15.40;99.90
680;DHT22;322;48.846;9.230;2023-11-19T14:32:36;15.40;99.90
680;DHT22;322;48.846;9.230;2023-11-19T14:35:05;15.30;99.90
680;DHT22;322;48.846;9.230;2023-11-19T14:37:33;15.30;99.90
680;DHT22;322;48.846;9.230;2023-11-19T14:40:03;15.30;99.90
680;DHT22;322;48.846;9.230;2023-11-19T14:42:32;15.20;99.90
680;DHT22;322;48.846;9.230;2023-11-19T14:45:00;15.20;99.90
680;DHT22;322;48.846;9.230;2023-11-19T14:47:28;15.10;99.90
680;DHT22;322;48.846;9.230;2023-11-19T14:49:57;15.00;99.90
680;DHT22;322;48.846;9.230;2023-11-19T14:52:25;15.00;99.90
680;DHT22;322;48.846;9.230;2023-11-19T14:54:53;14.90;99.90
680;DHT22;322;48.846;9.230;2023-11-19T14:57:24;14.80;99.90
680;DHT22;322;48.846;9.230;2023-11-19T14:59:52;14.80;99.90
680;DHT22;322;48.846;9.230;2023-11-19T15:02:20;14.80;99.90
680;DHT22;322;48.846;9.230;2023-11-19T15:04:48;14.70;99.90
680;DHT22;322;48.846;9.230;2023-11-19T15:07:16;14.60;99.90
680;DHT22;322;48.846;9.230;2023-11-19T15:09:44;14.60;99.90
680;DHT22;322;48.846;9.230;2023-11-19T15:12:12;14.60;99.90
680;DHT22;322;48.846;9.230;2023-11-19T15:14:42;14.50;99.90
680;DHT22;322;48.846;9.230;2023-11-19T15:17:10;14.50;99.90
680;DHT22;322;48.846;9.230;2023-11-19T15:19:38;14.40;99.90
680;DHT22;322;48.846;9.230;2023-11-19T15:22:07;14.30;99.90
680;DHT22;322;48.846;9.230;2023-11-19T15:24:38;14.30;99.90
680;DHT22;322;48.846;9.230;2023-11-19T15:27:06;14.20;99.90
680;DHT22;322;48.846;9.230;2023-11-19T15:29:38;14.20;99.90
680;DHT22;322;48.846;9.230;2023-11-19T15:32:08;14.10;99.90
680;DHT22;322;48.846;9.230;2023-11-19T15:34:36;14.10;99.90
680;DHT22;322;48.846;9.230;2023-11-19T15:37:05;14.00;99.90
680;DHT22;322;48.846;9.230;2023-11-19T15:39:32;13.90;99.90
680;DHT22;322;48.846;9.230;2023-11-19T15:42:03;13.90;99.90
680;DHT22;322;48.846;9.230;2023-11-19T15:44:31;13.90;99.90
680;DHT22;322;48.846;9.230;2023-11-19T15:46:59;14.00;99.90
680;DHT22;322;48.846;9.230;2023-11-19T15:49:28;14.00;99.90
680;DHT22;322;48.846;9.230;2023-11-19T15:51:56;13.90;99.90
680;DHT22;322;48.846;9.230;2023-11-19T15:54:24;13.90;99.90
680;DHT22;322;48.846;9.230;2023-11-19T15:56:52;13.70;99.90
680;DHT22;322;48.846;9.230;2023-11-19T15:59:19;13.60;99.90
680;DHT22;322;48.846;9.230;2023-11-19T16:01:48;13.50;99.90
680;DHT22;322;48.846;9.230;2023-11-19T16:04:16;13.30;99.90
680;DHT22;322;48.846;9.230;2023-11-19T16:06:45;13.30;99.90
680;DHT22;322;48.846;9.230;2023-11-19T16:09:13;13.20;99.90
680;DHT22;322;48.846;9.230;2023-11-19T16:11:41;13.10;99.90
680;DHT22;322;48.846;9.230;2023-11-19T16:14:22;13.20;99.90
680;DHT22;322;48.846;9.230;2023-11-19T16:16:50;13.10;99.90
680;DHT22;322;48.846;9.230;2023-11-19T16:19:19;13.00;99.90
680;DHT22;322;48.846;9.230;2023-11-19T16:21:49;13.00;99.90
680;DHT22;322;48.846;9.230;2023-11-19T16:24:17;13.00;99.90
680;DHT22;322;48.846;9.230;2023-11-19T16:26:45;12.90;99.90
680;DHT22;322;48.846;9.230;2023-11-19T16:29:13;12.90;99.90
680;DHT22;322;48.846;9.230;2023-11-19T16:31:41;12.80;99.90
680;DHT22;322;48.846;9.230;2023-11-19T16:34:10;12.80;99.90
680;DHT22;322;48.846;9.230;2023-11-19T16:36:38;12.80;99.90
680;DHT22;322;48.846;9.230;2023-11-19T16:39:07;12.70;99.90
680;DHT22;322;48.846;9.230;2023-11-19T16:41:39;12.60;99.90
680;DHT22;322;48.846;9.230;2023-11-19T16:44:10;12.60;99.90
680;DHT22;322;48.846;9.230;2023-11-19T16:46:38;12.70;99.90
680;DHT22;322;48.846;9.230;2023-11-19T16:49:06;12.80;99.90
680;DHT22;322;48.846;9.230;2023-11-19T16:51:34;12.70;99.90
680;DHT22;322;48.846;9.230;2023-11-19T16:54:03;12.80;99.90